Terminal Aerodrome Forecast
Issued by NWS

Home | Current Version | Previous Version | Text Only | Print | Product List | Glossary On
Versions: 1 2 3 4 5 6 7 8 9 10 11 12 13 14 15
000
FTUS41 KPBZ 281725
TAFZZV
TAF
KZZV 281725Z 2818/2918 16006KT P6SM BKN250
     FM290000 09004KT P6SM VCSH BKN150
     FM290400 15006KT P6SM VCSH BKN050
     FM291200 21006KT P6SM -SHRA BKN015=

USA.gov is the U.S. government's official web portal to all federal, state and local government web resources and services.